Terminal Aerodrome Forecast
Issued by NWS Charleston, WV

Current Version | Previous Version | Graphics & Text | Print | Product List | Glossary On
Versions: 1 2 3 4 5 6 7 8 9 10 11 12 13 14 15 16 17 18 19 20 21 22 23 24 25 26 27 28
000
FTUS41 KRLX 260800 AAA
TAFEKN
TAF AMD
KEKN 260859Z 2609/2706 00000KT 6SM SHRA BR BKN020
     FM261100 00000KT P6SM BKN015
     FM261400 VRB03KT P6SM BKN035
     FM261900 35007KT P6SM BKN045
     FM262300 33007KT P6SM SCT050=

USA.gov is the U.S. government's official web portal to all federal, state and local government web resources and services.